Time;durP1;ratioP1;P1;durP2;ratioP2;P2;SDS_P1;SDS_P2;PMS_P1;PMS_P2;Temp;Humidity;BMP_temperature;BMP_pressure;BME280_temperature;BME280_humidity;BME280_pressure;Samples;Min_cycle;Max_cycle;Signal;HPM_P1;HPM_P2
2023/12/08 00:01:42;;;;;;;32.17;13.50;;;;;;;-2.03;59.91;101276.59;5011341;28;20040;-68
2023/12/08 00:04:08;;;;;;;31.13;14.80;;;;;;;-2.00;59.94;101284.34;5010008;28;20844;-69
2023/12/08 00:06:33;;;;;;;32.40;14.00;;;;;;;-2.08;60.31;101280.78;5008614;28;20629;-69
2023/12/08 00:08:58;;;;;;;31.42;13.95;;;;;;;-2.14;60.26;101270.41;5009646;28;20132;-68
2023/12/08 00:11:24;;;;;;;28.42;13.45;;;;;;;-2.10;60.28;101259.41;5011227;28;20146;-69
2023/12/08 00:13:49;;;;;;;33.75;13.85;;;;;;;-2.13;60.31;101241.44;5008734;28;20069;-68
2023/12/08 00:16:15;;;;;;;32.72;13.82;;;;;;;-2.13;60.25;101236.31;4992386;28;20060;-69
2023/12/08 00:18:40;;;;;;;27.45;13.32;;;;;;;-2.27;60.42;101229.22;5010025;28;20129;-68
2023/12/08 00:21:06;;;;;;;31.15;13.82;;;;;;;-2.11;60.42;101234.59;5008390;28;20562;-68
2023/12/08 00:23:31;;;;;;;22.38;12.25;;;;;;;-2.17;60.57;101219.16;5025361;28;20080;-68
2023/12/08 00:25:57;;;;;;;29.55;13.23;;;;;;;-2.32;60.28;101205.22;5009428;28;20032;-68
2023/12/08 00:28:22;;;;;;;31.23;13.15;;;;;;;-2.25;60.13;101201.94;5011271;28;20042;-67
2023/12/08 00:30:48;;;;;;;32.30;15.75;;;;;;;-2.34;60.75;101190.66;5012122;28;20047;-68
2023/12/08 00:33:13;;;;;;;28.80;12.05;;;;;;;-2.27;60.38;101178.03;5024761;28;20038;-68
2023/12/08 00:35:39;;;;;;;34.03;13.73;;;;;;;-2.18;60.07;101191.81;5010300;28;20072;-68
2023/12/08 00:38:04;;;;;;;29.25;14.27;;;;;;;-2.28;60.35;101177.97;5006738;28;20048;-68
2023/12/08 00:40:30;;;;;;;28.50;12.95;;;;;;;-2.33;60.31;101167.66;5010587;28;20638;-71
2023/12/08 00:42:55;;;;;;;32.92;12.65;;;;;;;-2.26;60.23;101161.81;5004710;28;20036;-68
2023/12/08 00:45:21;;;;;;;35.25;13.30;;;;;;;-2.21;60.13;101167.00;5011688;28;20037;-68
2023/12/08 00:47:46;;;;;;;26.20;12.23;;;;;;;-2.33;60.20;101156.56;5010365;28;20159;-73
2023/12/08 00:50:12;;;;;;;34.92;13.43;;;;;;;-2.29;60.25;101146.41;5006414;28;20025;-72
2023/12/08 00:52:38;;;;;;;29.70;13.07;;;;;;;-2.19;60.16;101147.41;5010682;28;20040;-69
2023/12/08 00:55:03;;;;;;;29.73;13.48;;;;;;;-2.28;60.24;101139.56;4997472;28;20037;-68
2023/12/08 00:57:29;;;;;;;26.63;12.52;;;;;;;-2.17;59.60;101137.22;5009660;28;20053;-72
2023/12/08 00:59:54;;;;;;;28.90;14.25;;;;;;;-2.07;59.70;101131.38;5006924;28;20140;-71
2023/12/08 01:02:20;;;;;;;31.85;13.10;;;;;;;-2.14;59.74;101117.63;5013277;28;20033;-70
2023/12/08 01:04:45;;;;;;;30.27;11.82;;;;;;;-2.14;59.56;101111.63;5007163;28;20041;-71
2023/12/08 01:07:11;;;;;;;37.00;14.07;;;;;;;-2.37;60.35;101098.47;5008654;28;21662;-71
2023/12/08 01:09:36;;;;;;;32.90;14.73;;;;;;;-2.29;59.87;101084.94;5008468;28;20057;-67
2023/12/08 01:12:03;;;;;;;28.58;12.10;;;;;;;-2.37;60.37;101073.72;5006429;28;20159;-67
2023/12/08 01:14:28;;;;;;;34.33;13.73;;;;;;;-2.24;59.71;101069.66;5009081;28;20072;-68
2023/12/08 01:16:54;;;;;;;29.42;12.30;;;;;;;-2.52;60.66;101070.88;5005330;28;20037;-67
2023/12/08 01:19:20;;;;;;;29.40;12.40;;;;;;;-2.40;60.42;101073.69;5011170;28;20129;-66
2023/12/08 01:21:45;;;;;;;33.95;12.65;;;;;;;-2.39;60.15;101062.59;5008517;28;20044;-66
2023/12/08 01:24:12;;;;;;;30.67;15.05;;;;;;;-2.28;59.54;101073.84;5008429;28;21523;-66
2023/12/08 01:26:42;;;;;;;30.35;14.20;;;;;;;-2.34;59.67;101070.34;5008036;28;20569;-65
2023/12/08 01:29:08;;;;;;;26.42;11.68;;;;;;;-2.33;59.93;101075.50;5006628;28;20499;-65
2023/12/08 01:31:33;;;;;;;29.92;12.77;;;;;;;-2.39;59.93;101070.25;4990956;28;20044;-67
2023/12/08 01:33:58;;;;;;;25.98;11.70;;;;;;;-2.21;59.33;101068.00;5006595;28;20041;-66
2023/12/08 01:36:24;;;;;;;28.48;12.02;;;;;;;-2.35;59.53;101071.19;5007441;28;20037;-65
2023/12/08 01:38:49;;;;;;;25.35;11.38;;;;;;;-2.42;59.93;101071.06;5007853;28;20029;-65
2023/12/08 01:41:15;;;;;;;26.88;12.18;;;;;;;-2.29;59.45;101079.84;5007572;28;20532;-67
2023/12/08 01:43:44;;;;;;;28.35;11.60;;;;;;;-2.19;59.14;101083.41;5007645;28;20040;-66
2023/12/08 01:46:14;;;;;;;26.17;10.95;;;;;;;-2.27;59.33;101080.72;5004530;28;20033;-66
2023/12/08 01:48:40;;;;;;;31.13;11.40;;;;;;;-2.43;59.90;101078.72;5005379;28;20124;-67
2023/12/08 01:51:07;;;;;;;30.88;13.32;;;;;;;-2.40;59.35;101078.78;5006519;28;20084;-66
2023/12/08 01:53:32;;;;;;;27.67;11.98;;;;;;;-2.19;58.77;101077.41;5009545;28;20159;-64
2023/12/08 01:55:59;;;;;;;21.40;10.75;;;;;;;-2.12;58.68;101064.72;5004633;28;20381;-67
2023/12/08 01:58:25;;;;;;;24.67;12.23;;;;;;;-2.22;58.72;101068.84;5008735;28;20041;-68
2023/12/08 02:00:52;;;;;;;28.40;11.10;;;;;;;-2.39;59.07;101057.47;5008550;28;20090;-68
2023/12/08 02:03:23;;;;;;;22.63;8.73;;;;;;;-2.38;59.15;101051.53;5009582;28;20034;-69
2023/12/08 02:05:49;;;;;;;23.15;8.57;;;;;;;-2.33;58.86;101060.13;5008487;28;20515;-68
2023/12/08 02:08:15;;;;;;;23.60;10.52;;;;;;;-2.26;58.96;101051.72;5005586;28;20076;-68
2023/12/08 02:10:41;;;;;;;21.52;10.25;;;;;;;-2.15;58.15;101054.44;4986430;28;20120;-69
2023/12/08 02:13:06;;;;;;;27.15;10.05;;;;;;;-2.56;58.74;101036.69;5005420;28;20097;-71
2023/12/08 02:15:32;;;;;;;19.08;9.20;;;;;;;-2.27;58.55;101029.50;5009400;28;20037;-70
2023/12/08 02:17:58;;;;;;;26.10;9.07;;;;;;;-2.46;58.87;101032.59;5005403;28;20119;-71
2023/12/08 02:20:23;;;;;;;17.92;8.98;;;;;;;-2.32;58.35;101023.44;4992318;28;20044;-71
2023/12/08 02:22:49;;;;;;;18.85;9.43;;;;;;;-2.26;58.12;101026.09;5002336;28;20025;-70
2023/12/08 02:25:14;;;;;;;20.63;10.30;;;;;;;-2.17;57.76;101015.13;5005319;28;20641;-71
2023/12/08 02:27:41;;;;;;;23.13;10.38;;;;;;;-2.11;57.57;101014.34;5006814;28;20037;-72
2023/12/08 02:30:07;;;;;;;17.70;9.40;;;;;;;-2.13;57.75;101011.78;4989520;28;20029;-71
2023/12/08 02:32:52;;;;;;;17.00;7.90;;;;;;;-2.07;57.27;101027.25;5009019;28;20063;-67
2023/12/08 02:35:20;;;;;;;20.23;9.50;;;;;;;-2.35;57.76;101014.88;5004367;28;21313;-67
2023/12/08 02:37:48;;;;;;;20.20;8.65;;;;;;;-2.24;57.54;101019.31;5007523;28;20052;-68
2023/12/08 02:40:14;;;;;;;19.05;9.40;;;;;;;-2.05;57.01;101017.00;5004109;28;20065;-68
2023/12/08 02:42:39;;;;;;;15.80;8.13;;;;;;;-2.10;57.32;101016.09;5007663;28;20057;-67
2023/12/08 02:45:05;;;;;;;16.33;7.55;;;;;;;-2.12;57.00;101018.63;5006469;28;20037;-67
2023/12/08 02:47:31;;;;;;;22.55;9.65;;;;;;;-2.12;57.04;101012.66;5009372;28;20049;-67
2023/12/08 02:49:57;;;;;;;17.17;8.13;;;;;;;-2.09;57.02;101010.13;4989797;28;20088;-65
2023/12/08 02:52:22;;;;;;;16.85;8.00;;;;;;;-2.17;57.03;101014.28;5005251;28;20052;-65
2023/12/08 02:54:47;;;;;;;17.40;8.50;;;;;;;-2.38;57.25;101004.56;5007928;28;20646;-66
2023/12/08 02:57:13;;;;;;;15.00;7.68;;;;;;;-2.07;56.34;100998.19;5005028;28;20038;-65
2023/12/08 02:59:38;;;;;;;22.92;9.15;;;;;;;-2.43;57.18;101001.94;5010039;28;20069;-65
2023/12/08 03:02:04;;;;;;;18.30;8.00;;;;;;;-2.12;56.74;101013.50;5004625;28;20041;-67
2023/12/08 03:04:29;;;;;;;20.27;8.07;;;;;;;-2.37;57.02;100999.47;5009138;28;20069;-66
2023/12/08 03:06:55;;;;;;;13.82;6.50;;;;;;;-2.12;56.18;100993.00;5006954;28;20723;-67
2023/12/08 03:09:20;;;;;;;16.35;7.53;;;;;;;-2.40;56.57;100996.00;5006366;28;20045;-71
2023/12/08 03:11:46;;;;;;;15.27;8.30;;;;;;;-2.34;56.69;101009.75;5006972;28;20145;-72
2023/12/08 03:14:11;;;;;;;15.10;6.88;;;;;;;-2.22;56.18;100994.59;5004544;28;20037;-72
2023/12/08 03:16:37;;;;;;;18.00;7.60;;;;;;;-2.29;56.27;100997.91;5007227;28;20033;-72
2023/12/08 03:19:02;;;;;;;15.60;6.47;;;;;;;-2.31;56.28;100986.78;5004336;28;20493;-71
2023/12/08 03:21:27;;;;;;;15.23;8.13;;;;;;;-2.12;55.67;100981.91;5010448;28;20064;-73
2023/12/08 03:23:53;;;;;;;14.25;7.03;;;;;;;-2.19;55.85;100977.53;5006918;28;20037;-71
2023/12/08 03:26:19;;;;;;;11.70;6.55;;;;;;;-2.21;55.75;100970.69;5004402;28;20129;-70
2023/12/08 03:28:45;;;;;;;14.43;7.57;;;;;;;-2.14;55.77;100966.50;5006960;28;20128;-70
2023/12/08 03:31:29;;;;;;;15.95;7.57;;;;;;;-2.18;55.76;100971.56;5005231;28;20033;-71
2023/12/08 03:33:54;;;;;;;16.15;6.90;;;;;;;-2.34;56.08;100963.66;5006641;28;20080;-71
2023/12/08 03:36:20;;;;;;;15.27;6.72;;;;;;;-2.21;55.45;100964.72;5005475;28;21487;-70
2023/12/08 03:38:45;;;;;;;17.15;8.27;;;;;;;-2.24;55.76;100962.13;5005212;28;20033;-66
2023/12/08 03:41:11;;;;;;;12.27;6.05;;;;;;;-2.30;55.44;100967.16;5006988;28;20071;-67
2023/12/08 03:43:38;;;;;;;15.20;7.13;;;;;;;-2.17;55.41;100963.06;5006315;28;20052;-66
2023/12/08 03:46:05;;;;;;;12.43;6.63;;;;;;;-2.14;55.08;100955.41;5003523;28;20026;-66
2023/12/08 03:48:31;;;;;;;14.13;6.10;;;;;;;-2.34;55.61;100944.88;5007091;28;20069;-67
2023/12/08 03:50:56;;;;;;;16.50;8.02;;;;;;;-2.18;55.11;100945.97;5008589;28;20549;-67
2023/12/08 03:53:22;;;;;;;14.10;6.53;;;;;;;-2.33;55.61;100949.19;5007154;28;20122;-67
2023/12/08 03:55:47;;;;;;;15.20;7.13;;;;;;;-2.27;55.45;100942.47;5010367;28;20022;-65
2023/12/08 03:58:13;;;;;;;13.63;6.90;;;;;;;-2.24;55.30;100957.84;5009729;28;20029;-65
2023/12/08 04:00:38;;;;;;;12.93;6.15;;;;;;;-2.07;54.81;100946.97;5011640;28;20484;-68
2023/12/08 04:03:04;;;;;;;14.20;8.55;;;;;;;-2.22;55.22;100956.19;5006805;28;20524;-68
2023/12/08 04:05:29;;;;;;;11.90;6.38;;;;;;;-2.21;55.10;100954.47;5026456;28;20637;-68
2023/12/08 04:07:54;;;;;;;13.40;6.68;;;;;;;-2.37;55.50;100950.84;5010102;28;20484;-68
2023/12/08 04:10:20;;;;;;;10.23;5.80;;;;;;;-2.25;54.97;100951.00;5007175;28;20446;-68
2023/12/08 04:12:45;;;;;;;13.52;7.28;;;;;;;-2.11;54.85;100953.78;5010691;28;20455;-68
2023/12/08 04:15:11;;;;;;;10.93;5.55;;;;;;;-2.28;55.30;100947.53;5006929;28;21000;-68
2023/12/08 04:17:36;;;;;;;14.73;7.18;;;;;;;-2.07;54.83;100963.22;5012625;28;20041;-68
2023/12/08 04:20:02;;;;;;;15.32;5.75;;;;;;;-2.36;55.58;100967.91;5008797;28;20041;-68
2023/12/08 04:22:27;;;;;;;12.10;6.20;;;;;;;-2.26;54.83;100974.03;5009164;28;20487;-68
2023/12/08 04:24:53;;;;;;;12.30;5.85;;;;;;;-2.23;54.62;100989.44;5009629;28;20069;-68
2023/12/08 04:27:19;;;;;;;14.40;5.93;;;;;;;-2.61;55.63;100986.28;5014419;28;20033;-68
2023/12/08 04:29:44;;;;;;;14.18;6.00;;;;;;;-2.40;55.33;100967.84;5012496;28;20045;-68
2023/12/08 04:32:09;;;;;;;15.70;6.47;;;;;;;-2.33;55.13;100973.09;5006157;28;20033;-68
2023/12/08 04:34:35;;;;;;;11.48;6.53;;;;;;;-2.42;55.10;100967.84;5011927;28;20187;-68
2023/12/08 04:37:00;;;;;;;10.43;5.90;;;;;;;-2.33;55.23;100962.00;5009045;28;20124;-68
2023/12/08 04:39:26;;;;;;;9.63;5.25;;;;;;;-2.34;55.29;100962.81;4970289;28;20045;-69
2023/12/08 04:41:51;;;;;;;12.45;5.57;;;;;;;-2.32;55.12;100969.66;5013314;28;20544;-69
2023/12/08 04:44:17;;;;;;;13.45;6.00;;;;;;;-2.12;54.68;100956.31;5006552;28;20084;-66
2023/12/08 04:46:43;;;;;;;14.55;6.05;;;;;;;-2.33;55.30;100947.47;5010051;28;20033;-67
2023/12/08 04:49:08;;;;;;;11.32;5.55;;;;;;;-2.24;54.89;100942.50;4999609;28;20467;-67
2023/12/08 04:51:35;;;;;;;11.00;6.28;;;;;;;-2.18;55.04;100943.41;5009516;28;20053;-68
2023/12/08 04:54:01;;;;;;;13.30;6.03;;;;;;;-2.28;54.99;100945.00;5010862;28;20076;-68
2023/12/08 04:56:27;;;;;;;14.07;6.63;;;;;;;-2.04;54.66;100939.34;5007954;28;22109;-67
2023/12/08 04:58:52;;;;;;;12.85;6.20;;;;;;;-2.32;55.08;100938.94;5010217;28;20045;-68
2023/12/08 05:01:18;;;;;;;11.45;6.25;;;;;;;-2.24;54.95;100942.50;5006844;28;20029;-71
2023/12/08 05:03:43;;;;;;;17.10;5.97;;;;;;;-2.30;55.18;100937.28;5008188;28;20766;-71
2023/12/08 05:06:09;;;;;;;12.27;6.05;;;;;;;-2.24;55.19;100936.50;5006487;28;20052;-71
2023/12/08 05:08:34;;;;;;;12.10;5.90;;;;;;;-2.26;55.23;100944.16;5009098;28;20043;-70
2023/12/08 05:11:00;;;;;;;8.40;5.53;;;;;;;-2.14;54.93;100940.06;5011314;28;20117;-71
2023/12/08 05:13:25;;;;;;;8.95;4.78;;;;;;;-2.28;55.25;100935.59;5006127;28;20046;-70
2023/12/08 05:15:51;;;;;;;11.05;5.80;;;;;;;-2.30;55.19;100936.41;5009502;28;20077;-67
2023/12/08 05:18:16;;;;;;;9.80;5.68;;;;;;;-2.32;55.69;100932.97;5004625;28;20037;-69
2023/12/08 05:20:42;;;;;;;12.27;6.00;;;;;;;-2.40;55.13;100925.19;5010400;28;20484;-69
2023/12/08 05:23:07;;;;;;;10.82;5.75;;;;;;;-2.13;54.93;100923.88;5008658;28;20443;-69
2023/12/08 05:25:34;;;;;;;10.40;5.50;;;;;;;-2.13;54.75;100928.97;5007889;28;20033;-69
2023/12/08 05:28:00;;;;;;;10.93;5.65;;;;;;;-2.05;54.61;100932.47;5009884;28;20038;-70
2023/12/08 05:30:27;;;;;;;13.23;6.47;;;;;;;-2.09;54.60;100923.91;5008070;28;20083;-71
2023/12/08 05:32:53;;;;;;;11.15;5.57;;;;;;;-2.04;54.52;100922.28;5010208;28;20037;-69
2023/12/08 05:35:19;;;;;;;15.00;6.32;;;;;;;-1.99;54.24;100927.44;5005237;28;20566;-69
2023/12/08 05:37:44;;;;;;;11.43;5.32;;;;;;;-1.99;54.16;100927.44;5008600;28;20116;-69
2023/12/08 05:40:10;;;;;;;15.07;5.40;;;;;;;-1.95;53.96;100916.41;5005894;28;20038;-69
2023/12/08 05:42:36;;;;;;;12.95;5.85;;;;;;;-2.02;54.20;100918.03;5010162;28;20522;-69
2023/12/08 05:45:01;;;;;;;11.30;5.47;;;;;;;-2.04;54.25;100914.59;5007929;28;20037;-69
2023/12/08 05:47:27;;;;;;;14.77;6.10;;;;;;;-1.98;54.22;100903.53;5008114;28;20036;-69
2023/12/08 05:49:52;;;;;;;11.85;6.03;;;;;;;-1.91;54.17;100905.34;5000511;28;20041;-69
2023/12/08 05:52:18;;;;;;;11.93;6.40;;;;;;;-2.05;54.45;100899.19;5004377;28;21694;-69
2023/12/08 05:54:43;;;;;;;10.55;6.03;;;;;;;-2.07;54.28;100886.38;5009541;28;20029;-69
2023/12/08 05:57:09;;;;;;;14.45;6.60;;;;;;;-2.21;54.79;100881.06;5007375;28;20029;-71
2023/12/08 05:59:34;;;;;;;11.20;5.13;;;;;;;-2.13;54.48;100877.75;5006457;28;20063;-68
2023/12/08 06:02:00;;;;;;;12.60;5.43;;;;;;;-2.02;54.34;100876.19;5008132;28;20053;-68
2023/12/08 06:04:25;;;;;;;11.80;5.80;;;;;;;-2.12;54.52;100869.22;4994727;28;20132;-68
2023/12/08 06:06:51;;;;;;;12.52;5.57;;;;;;;-2.10;54.53;100873.53;5008076;28;20033;-68
2023/12/08 06:09:17;;;;;;;11.25;6.18;;;;;;;-2.08;54.58;100868.44;5005109;28;20079;-70
2023/12/08 06:11:43;;;;;;;12.73;6.28;;;;;;;-1.95;53.82;100862.63;5008334;28;20439;-70
2023/12/08 06:14:09;;;;;;;13.80;5.50;;;;;;;-1.96;54.13;100860.88;5007580;28;20052;-71
2023/12/08 06:16:36;;;;;;;10.30;6.13;;;;;;;-2.02;53.85;100856.56;5000872;28;20111;-70
2023/12/08 06:19:04;;;;;;;18.08;6.07;;;;;;;-1.95;53.71;100860.03;5005797;28;20033;-70
2023/12/08 06:21:29;;;;;;;15.60;5.88;;;;;;;-2.11;54.30;100858.13;5004244;28;20158;-69
2023/12/08 06:23:55;;;;;;;15.23;6.65;;;;;;;-2.05;53.99;100848.81;5008105;28;20564;-69
2023/12/08 06:26:21;;;;;;;10.52;4.88;;;;;;;-2.27;54.52;100857.09;5003687;28;20037;-70
2023/12/08 06:28:47;;;;;;;11.05;5.93;;;;;;;-2.12;54.33;100849.59;5005835;28;20038;-69
2023/12/08 06:31:12;;;;;;;14.13;6.10;;;;;;;-2.17;54.20;100845.28;5004284;28;20037;-69
2023/12/08 06:33:38;;;;;;;10.77;5.90;;;;;;;-2.50;54.67;100856.78;5003257;28;20151;-67
2023/12/08 06:36:05;;;;;;;14.48;6.82;;;;;;;-2.20;54.36;100848.66;5006292;28;20037;-65
2023/12/08 06:38:31;;;;;;;13.02;5.82;;;;;;;-2.09;53.71;100848.75;5001767;28;20049;-69
2023/12/08 06:40:57;;;;;;;11.40;6.03;;;;;;;-2.10;53.82;100847.06;5009649;28;20095;-69
2023/12/08 06:43:22;;;;;;;13.93;5.72;;;;;;;-2.17;54.20;100855.50;5002006;28;20494;-69
2023/12/08 06:45:48;;;;;;;9.30;4.80;;;;;;;-2.52;54.73;100854.19;5007180;28;20045;-71
2023/12/08 06:48:13;;;;;;;12.35;4.82;;;;;;;-2.43;54.37;100843.22;5005019;28;20535;-70
2023/12/08 06:50:39;;;;;;;11.40;5.35;;;;;;;-2.16;54.08;100852.94;5005188;28;20033;-70
2023/12/08 06:53:04;;;;;;;11.52;5.82;;;;;;;-2.05;53.57;100848.81;5007751;28;20033;-70
2023/12/08 06:55:30;;;;;;;12.50;6.05;;;;;;;-2.12;54.10;100856.41;5002766;28;20090;-68
2023/12/08 06:57:55;;;;;;;13.88;6.28;;;;;;;-2.09;53.89;100856.44;5007828;28;20438;-68
2023/12/08 07:00:21;;;;;;;12.25;5.65;;;;;;;-2.27;54.30;100845.16;5000890;28;20406;-68
2023/12/08 07:02:47;;;;;;;16.17;7.10;;;;;;;-2.40;54.89;100848.41;5006266;28;20065;-68
2023/12/08 07:05:12;;;;;;;10.35;5.45;;;;;;;-2.37;54.63;100845.03;5004378;28;20639;-71
2023/12/08 07:07:38;;;;;;;14.23;6.78;;;;;;;-2.22;54.34;100848.63;5003872;28;20057;-70
2023/12/08 07:10:04;;;;;;;17.80;6.30;;;;;;;-2.18;54.18;100846.09;5006946;28;20495;-71
2023/12/08 07:12:30;;;;;;;13.20;5.75;;;;;;;-2.25;55.03;100847.72;5002940;28;20048;-71
2023/12/08 07:14:56;;;;;;;11.60;5.38;;;;;;;-2.53;55.13;100849.09;5006580;28;20574;-71
2023/12/08 07:17:22;;;;;;;11.88;5.55;;;;;;;-2.16;54.27;100846.97;5000260;28;20037;-73
2023/12/08 07:19:48;;;;;;;15.98;5.88;;;;;;;-2.17;54.24;100851.25;5009287;28;20039;-69
2023/12/08 07:22:14;;;;;;;13.00;5.97;;;;;;;-2.12;54.39;100841.06;5007736;28;20033;-69
2023/12/08 07:24:40;;;;;;;15.93;6.85;;;;;;;-2.03;53.99;100836.03;5004721;28;20037;-69
2023/12/08 07:27:06;;;;;;;11.52;5.97;;;;;;;-2.08;54.39;100833.44;4992283;28;20029;-69
2023/12/08 07:29:31;;;;;;;11.73;6.13;;;;;;;-2.26;54.72;100836.63;5005292;28;20037;-70
2023/12/08 07:31:57;;;;;;;10.27;5.60;;;;;;;-2.09;54.13;100838.53;5013765;28;20597;-70
2023/12/08 07:34:22;;;;;;;14.27;6.00;;;;;;;-2.15;54.43;100841.03;5004794;28;20034;-71
2023/12/08 07:36:48;;;;;;;13.60;6.38;;;;;;;-2.10;54.57;100842.78;5011788;28;20091;-71
2023/12/08 07:39:14;;;;;;;15.52;7.18;;;;;;;-2.18;54.28;100840.97;5008985;28;20190;-69
2023/12/08 07:41:43;;;;;;;15.18;6.97;;;;;;;-2.14;54.33;100837.63;5000317;28;20037;-73
2023/12/08 07:44:08;;;;;;;10.85;5.38;;;;;;;-2.14;54.60;100835.06;5012273;28;20038;-69
2023/12/08 07:46:34;;;;;;;13.55;7.60;;;;;;;-2.04;54.20;100837.75;4999995;28;20049;-72
2023/12/08 07:49:00;;;;;;;12.30;6.70;;;;;;;-2.18;54.58;100846.09;5013849;28;20110;-73
2023/12/08 07:51:25;;;;;;;14.60;7.70;;;;;;;-2.32;55.01;100845.94;4995960;28;20056;-73
2023/12/08 07:53:51;;;;;;;12.77;6.55;;;;;;;-2.30;55.04;100850.22;4985726;28;20032;-75
2023/12/08 07:56:16;;;;;;;17.35;7.38;;;;;;;-2.30;55.31;100852.78;5015813;28;21135;-74
2023/12/08 07:58:42;;;;;;;17.30;7.53;;;;;;;-2.24;55.53;100852.03;5006359;28;20041;-67
2023/12/08 08:01:07;;;;;;;13.82;6.38;;;;;;;-2.19;55.60;100852.94;5012176;28;20039;-68
2023/12/08 08:03:33;;;;;;;17.35;6.88;;;;;;;-2.43;56.61;100853.47;4988496;28;20581;-67
2023/12/08 08:05:58;;;;;;;18.50;8.60;;;;;;;-2.16;55.88;100852.94;5019233;28;20045;-67
2023/12/08 08:08:24;;;;;;;16.55;6.88;;;;;;;-2.28;56.65;100855.38;5008554;28;20148;-66
2023/12/08 08:10:49;;;;;;;18.40;6.90;;;;;;;-2.17;56.94;100858.06;5013250;28;20064;-66
2023/12/08 08:13:15;;;;;;;15.55;7.93;;;;;;;-2.33;57.26;100849.34;5011351;28;20048;-64
2023/12/08 08:15:41;;;;;;;17.48;7.72;;;;;;;-2.39;57.61;100857.78;5008965;28;20125;-65
2023/12/08 08:18:07;;;;;;;17.95;8.38;;;;;;;-2.41;57.82;100859.47;5009966;28;20076;-66
2023/12/08 08:20:32;;;;;;;17.90;8.02;;;;;;;-2.56;58.95;100865.22;5005279;28;20065;-68
2023/12/08 08:22:58;;;;;;;20.85;8.90;;;;;;;-2.39;58.46;100862.91;5011873;28;20041;-66
2023/12/08 08:25:24;;;;;;;14.50;7.57;;;;;;;-2.27;58.28;100872.44;5006489;28;20029;-67
2023/12/08 08:27:53;;;;;;;21.77;9.73;;;;;;;-2.53;59.20;100875.53;5007664;28;20033;-66
2023/12/08 08:30:20;;;;;;;23.05;8.75;;;;;;;-2.59;59.53;100874.56;5011426;28;20037;-67
2023/12/08 08:32:46;;;;;;;18.38;8.70;;;;;;;-2.46;59.42;100884.16;5007887;28;20040;-66
2023/12/08 08:35:11;;;;;;;17.98;8.43;;;;;;;-2.42;59.29;100875.69;5011502;28;20017;-66
2023/12/08 08:37:37;;;;;;;20.73;8.90;;;;;;;-2.45;59.22;100876.50;5002505;28;21443;-66
2023/12/08 08:40:05;;;;;;;19.50;9.05;;;;;;;-2.46;59.47;100873.91;5012807;28;20025;-68
2023/12/08 08:42:31;;;;;;;18.05;8.70;;;;;;;-2.36;59.37;100865.50;5011729;28;20061;-68
2023/12/08 08:44:57;;;;;;;22.00;10.30;;;;;;;-2.56;60.02;100874.59;5008930;28;20168;-68
2023/12/08 08:47:22;;;;;;;22.80;10.13;;;;;;;-2.70;60.32;100870.16;5004872;28;20128;-69
2023/12/08 08:49:49;;;;;;;23.25;9.90;;;;;;;-2.82;60.77;100864.88;4993122;28;20120;-67
2023/12/08 08:52:15;;;;;;;18.90;8.20;;;;;;;-2.75;60.55;100866.69;5001494;28;20038;-66
2023/12/08 08:54:40;;;;;;;20.95;9.07;;;;;;;-2.64;60.79;100867.69;5005391;28;20033;-67
2023/12/08 08:57:05;;;;;;;20.95;9.57;;;;;;;-2.46;60.11;100868.78;5012190;28;20033;-67
2023/12/08 08:59:31;;;;;;;24.10;10.55;;;;;;;-2.46;60.36;100863.66;5005974;28;20045;-67
2023/12/08 09:01:56;;;;;;;22.50;10.27;;;;;;;-2.29;59.70;100862.19;5011692;28;20044;-68
2023/12/08 09:04:22;;;;;;;22.17;8.88;;;;;;;-2.30;59.70;100864.72;5024454;28;20037;-69
2023/12/08 09:06:47;;;;;;;18.48;9.93;;;;;;;-2.14;59.54;100858.09;5010614;28;20041;-67
2023/12/08 09:09:13;;;;;;;23.55;9.20;;;;;;;-2.43;59.96;100859.44;5011170;28;20038;-67
2023/12/08 09:11:39;;;;;;;27.70;10.93;;;;;;;-2.42;60.22;100861.16;5003452;28;20585;-67
2023/12/08 09:14:04;;;;;;;24.95;10.43;;;;;;;-2.30;59.92;100860.47;5011494;28;20033;-67
2023/12/08 09:16:30;;;;;;;21.55;10.20;;;;;;;-2.28;59.84;100861.34;5004059;28;20026;-67
2023/12/08 09:18:55;;;;;;;18.73;9.45;;;;;;;-2.18;59.68;100864.88;5009864;28;20042;-67
2023/12/08 09:21:21;;;;;;;19.20;10.02;;;;;;;-2.19;59.92;100857.19;5010881;28;20149;-69
2023/12/08 09:23:47;;;;;;;18.33;9.18;;;;;;;-2.13;59.50;100864.97;5005091;28;20075;-69
2023/12/08 09:26:12;;;;;;;20.02;9.80;;;;;;;-2.28;59.99;100863.91;5009655;28;20049;-69
2023/12/08 09:28:38;;;;;;;19.20;9.80;;;;;;;-2.04;59.20;100870.19;5004976;28;20041;-67
2023/12/08 09:31:03;;;;;;;22.83;9.00;;;;;;;-2.02;59.31;100863.38;5010677;28;20068;-69
2023/12/08 09:33:29;;;;;;;20.63;10.00;;;;;;;-2.06;59.05;100861.63;5005090;28;20069;-69
2023/12/08 09:35:55;;;;;;;20.98;9.35;;;;;;;-2.02;59.21;100850.59;5009089;28;20083;-69
2023/12/08 09:38:21;;;;;;;17.55;8.45;;;;;;;-1.99;59.34;100855.72;5009720;28;20037;-68
2023/12/08 09:40:46;;;;;;;19.90;9.52;;;;;;;-2.22;59.49;100858.88;5006034;28;20033;-68
2023/12/08 09:43:25;;;;;;;23.20;9.85;;;;;;;-2.20;59.83;100853.78;5004049;28;20431;-68
2023/12/08 09:45:52;;;;;;;18.27;9.73;;;;;;;-2.10;59.24;100858.16;5009169;28;20033;-69
2023/12/08 09:48:20;;;;;;;22.52;10.05;;;;;;;-2.18;59.45;100866.59;5005684;28;20045;-68
2023/12/08 09:50:46;;;;;;;21.17;9.82;;;;;;;-2.30;59.62;100865.59;5003993;28;20041;-69
2023/12/08 09:53:12;;;;;;;20.10;10.18;;;;;;;-2.30;59.75;100865.59;5006580;28;20037;-68
2023/12/08 09:55:37;;;;;;;23.10;9.50;;;;;;;-2.37;59.89;100876.59;4985373;28;20103;-67
2023/12/08 09:58:03;;;;;;;15.82;7.88;;;;;;;-1.91;59.33;100860.91;5005678;28;20091;-68
2023/12/08 10:00:35;;;;;;;24.05;10.63;;;;;;;-1.89;58.83;100857.56;5003600;28;20083;-67
2023/12/08 10:03:01;;;;;;;20.23;9.52;;;;;;;-1.84;58.76;100853.34;5007404;28;20132;-67
2023/12/08 10:05:27;;;;;;;17.00;8.38;;;;;;;-1.91;58.74;100848.13;5004261;28;20030;-67
2023/12/08 10:07:54;;;;;;;21.90;9.68;;;;;;;-2.12;58.97;100859.84;5007910;28;20948;-67
2023/12/08 10:10:21;;;;;;;26.08;10.18;;;;;;;-2.14;59.39;100856.41;5010019;28;20039;-67
2023/12/08 10:12:47;;;;;;;22.05;9.55;;;;;;;-2.14;59.39;100860.66;5001119;28;20033;-67
2023/12/08 10:15:16;;;;;;;19.70;10.10;;;;;;;-2.01;59.34;100849.72;5007977;28;20741;-67
2023/12/08 10:17:51;;;;;;;18.95;9.55;;;;;;;-2.02;58.79;100845.47;5001804;28;20141;-67
2023/12/08 10:20:21;;;;;;;18.00;9.20;;;;;;;-1.94;59.33;100838.69;5009256;28;20582;-66
2023/12/08 10:22:54;;;;;;;24.20;9.75;;;;;;;-1.83;58.75;100838.81;5002435;28;20848;-66
2023/12/08 10:25:21;;;;;;;18.30;8.98;;;;;;;-2.17;59.70;100842.72;5008504;28;20105;-67
2023/12/08 10:27:52;;;;;;;21.23;9.93;;;;;;;-2.06;59.40;100844.56;5001994;28;21013;-66
2023/12/08 10:30:19;;;;;;;17.90;9.10;;;;;;;-1.82;59.12;100831.16;5024846;28;20035;-66
2023/12/08 10:32:45;;;;;;;16.58;8.55;;;;;;;-1.92;59.59;100829.34;5001971;28;20072;-66
2023/12/08 10:35:11;;;;;;;22.40;9.38;;;;;;;-1.93;59.25;100827.63;5008479;28;20041;-67
2023/12/08 10:37:38;;;;;;;21.45;9.02;;;;;;;-1.74;58.96;100825.25;5001494;28;20037;-66
2023/12/08 10:40:10;;;;;;;17.05;7.88;;;;;;;-2.01;59.53;100821.56;5009360;28;20165;-67
2023/12/08 10:42:36;;;;;;;21.37;10.10;;;;;;;-1.88;59.01;100818.28;5017132;28;20057;-67
2023/12/08 10:45:10;;;;;;;20.10;10.20;;;;;;;-1.86;59.05;100810.63;5007959;28;20044;-67
2023/12/08 10:47:40;;;;;;;23.75;11.32;;;;;;;-1.69;58.65;100808.22;5017082;28;20419;-67
2023/12/08 10:50:08;;;;;;;24.67;10.68;;;;;;;-1.96;59.36;100803.66;5008676;28;20395;-66
2023/12/08 10:52:36;;;;;;;17.25;9.40;;;;;;;-1.86;59.28;100805.50;4991807;28;20132;-67
2023/12/08 10:55:01;;;;;;;23.42;10.02;;;;;;;-1.76;59.02;100811.56;5006024;28;20935;-67
2023/12/08 10:57:27;;;;;;;20.63;10.93;;;;;;;-1.96;59.10;100804.50;5005910;28;20037;-66
2023/12/08 10:59:57;;;;;;;23.35;10.35;;;;;;;-1.81;59.07;100804.69;4990014;28;20045;-66
2023/12/08 11:02:26;;;;;;;21.90;9.90;;;;;;;-1.69;58.84;100809.06;5007380;28;20044;-67
2023/12/08 11:04:57;;;;;;;19.73;10.25;;;;;;;-2.05;59.82;100822.34;5001110;28;20064;-66
2023/12/08 11:07:35;;;;;;;21.23;8.20;;;;;;;-1.95;59.32;100824.19;5005604;28;20686;-67
2023/12/08 11:10:06;;;;;;;17.55;8.70;;;;;;;-2.01;59.86;100830.09;4981348;28;20048;-67